North Vancouver, Canada
Current Conditions -  °F | °C
As of 4:00 AM on Thursday 23 Oct 2014 (Local Time) from CYVR Reporting Station
Overcast Overcast  
Wind Chill: 50°   Ceiling: 15000
Heat Index: 50°   Visibility: 15mi
Dew Point: 46°   Wind: 8mph
Humidity: 87%   Direction: 70°ENE
Pressure: 29.68"   Gusts: NA
Location:  49.32°N, 123.07°W
Report Text: CYVR 231100Z 07007KT 15SM SCT062 BKN150 OVC200 10/08 A2968 RMK SC4AC2CI2 SLP049
Loading
Personal Weather Stations






























Interactive Weather Map
Tropical Storm Tracking
New forecast layout! Learn more

10-Day Weather Forecast

Advertisements
Track Severe Weather on mobile